»·PEaware :: AAL133 KRNO-KLAX

AAL133 :: KRNO-KLAX

FLIGHT INFORMATION

Flight Status: Arrived
Operator:
American Airlines
More flights by this operator :: More flights under this callsign
Pilot: Kevin B. (675)
Aircraft: AIRBUS A321
(A321)
More flights by this aircraft type
Origin: KRNO Reno/Tahoe Intl
United States
Destination: KLAX Los Angeles Intl
United States
More flights between these airports :: More routes between these airports
Route: +ZEFFR6 DARBI FRA J7 REBRG IRNMN2
File this flight plan on PilotEdge
Remarks:
Altitude:
(Current/Filed)
31,000ft
Speed:
(Current/Filed)
450kts
Departed: 29-Feb-20 02:40 PM
Arrived: 29-Feb-20 03:44 PM
Distance/Time
Traveled:
339nm/1:04
Distance/Time
To Go:
Arrived

Flight Plot

Page will automatically refresh every two minutes.

Flight plan parsing failed; only flown route is shown


Map Options




Map Legend


Flown Route
Filed Route
Departure Airport
Arrival Airport
Navaid (VOR, NDB)
Fix

Horizontal Profiles

Position Reports

Time Latitude Longitude Heading Altitude Ground
Speed
29-Feb-20 14:00 39.505400 -119.772729 216 4424ft 0kts
29-Feb-20 14:01 39.505400 -119.772729 216 4424ft 0kts
29-Feb-20 14:02 39.505400 -119.772729 216 4424ft 0kts
29-Feb-20 14:03 39.505400 -119.772729 216 4424ft 0kts
29-Feb-20 14:04 39.505400 -119.772729 216 4424ft 0kts
29-Feb-20 14:05 39.505400 -119.772729 216 4424ft 0kts
29-Feb-20 14:06 39.505400 -119.772729 216 4424ft 0kts
29-Feb-20 14:07 39.505400 -119.772729 216 4424ft 0kts
29-Feb-20 14:08 39.505400 -119.772729 216 4424ft 0kts
29-Feb-20 14:09 39.505400 -119.772729 216 4424ft 0kts
29-Feb-20 14:10 39.505400 -119.772729 216 4424ft 0kts
29-Feb-20 14:11 39.505400 -119.772729 216 4424ft 0kts
29-Feb-20 14:12 39.505400 -119.772729 216 4424ft 0kts
29-Feb-20 14:13 39.505400 -119.772729 216 4424ft 0kts
29-Feb-20 14:14 39.505400 -119.772729 216 4424ft 0kts
29-Feb-20 14:15 39.505400 -119.772729 216 4424ft 0kts
29-Feb-20 14:16 39.505400 -119.772729 216 4424ft 0kts
29-Feb-20 14:17 39.505400 -119.772729 216 4424ft 0kts
29-Feb-20 14:18 39.505400 -119.772729 216 4424ft 0kts
29-Feb-20 14:19 39.505400 -119.772729 216 4424ft 0kts
29-Feb-20 14:20 39.505400 -119.772729 216 4424ft 0kts
29-Feb-20 14:21 39.505400 -119.772729 216 4424ft 0kts
29-Feb-20 14:22 39.505400 -119.772729 216 4424ft 0kts
29-Feb-20 14:23 39.505400 -119.772729 216 4424ft 0kts
29-Feb-20 14:24 39.505400 -119.772729 216 4424ft 0kts
29-Feb-20 14:25 39.505401 -119.772729 216 4424ft 0kts
29-Feb-20 14:26 39.505645 -119.772491 216 4424ft 2kts
29-Feb-20 14:27 39.505927 -119.772727 85 4424ft 2kts
29-Feb-20 14:28 39.505911 -119.773452 87 4424ft 1kts
29-Feb-20 14:29 39.505910 -119.773497 89 4424ft 0kts
29-Feb-20 14:30 39.505910 -119.773497 89 4424ft 0kts
29-Feb-20 14:31 39.505910 -119.773497 89 4424ft 0kts
29-Feb-20 14:32 39.505910 -119.773497 89 4424ft 0kts
29-Feb-20 14:33 39.505905 -119.773128 91 4424ft 4kts
29-Feb-20 14:34 39.506814 -119.771517 1 4424ft 9kts
29-Feb-20 14:35 39.509928 -119.771512 359 4424ft 12kts
29-Feb-20 14:36 39.513609 -119.771288 40 4424ft 9kts
29-Feb-20 14:37 39.513760 -119.770550 89 4424ft 0kts
29-Feb-20 14:38 39.513383 -119.769259 175 4424ft 8kts
29-Feb-20 14:39 39.481483 -119.769603 178 5221ft 180kts
29-Feb-20 14:40 39.429587 -119.769396 181 7307ft 211kts
29-Feb-20 14:41 39.361218 -119.769895 181 8544ft 277kts
29-Feb-20 14:42 39.281520 -119.768657 183 10760ft 307kts
29-Feb-20 14:43 39.187243 -119.765235 183 12187ft 361kts
29-Feb-20 14:44 39.089033 -119.761519 183 15139ft 360kts
29-Feb-20 14:45 38.986093 -119.757718 182 17293ft 376kts
29-Feb-20 14:46 38.879726 -119.753724 182 18936ft 388kts
29-Feb-20 14:47 38.767194 -119.749522 182 20230ft 410kts
29-Feb-20 14:48 38.652012 -119.745174 182 22001ft 421kts
29-Feb-20 14:49 38.533539 -119.740694 181 23575ft 432kts
29-Feb-20 14:50 38.412736 -119.736150 182 24996ft 441kts
29-Feb-20 14:51 38.288937 -119.730705 179 26305ft 450kts
29-Feb-20 14:52 38.163247 -119.716509 179 27441ft 457kts
29-Feb-20 14:53 38.035910 -119.701835 179 28408ft 463kts
29-Feb-20 14:54 37.907352 -119.687104 179 29252ft 469kts
29-Feb-20 14:55 37.776524 -119.672153 179 30034ft 473kts
29-Feb-20 14:56 37.644971 -119.657175 179 30759ft 476kts
29-Feb-20 14:57 37.513578 -119.642242 179 31035ft 473kts
29-Feb-20 14:58 37.382775 -119.627438 179 31038ft 474kts
29-Feb-20 14:59 37.250958 -119.612494 179 31038ft 475kts
29-Feb-20 15:00 37.120034 -119.598008 181 31026ft 469kts
29-Feb-20 15:01 36.991592 -119.598144 185 31031ft 460kts
29-Feb-20 15:02 36.863305 -119.600523 185 31024ft 461kts
29-Feb-20 15:03 36.734958 -119.602700 185 31030ft 463kts
29-Feb-20 15:04 36.606254 -119.604904 185 31031ft 463kts
29-Feb-20 15:05 36.477135 -119.607095 184 31038ft 463kts
29-Feb-20 15:06 36.348225 -119.609264 184 31047ft 463kts
29-Feb-20 15:07 36.220480 -119.611373 184 31047ft 464kts
29-Feb-20 15:08 36.091417 -119.613413 184 31047ft 464kts
29-Feb-20 15:09 35.963408 -119.627054 194 31046ft 458kts
29-Feb-20 15:10 35.842239 -119.667771 200 31037ft 457kts
29-Feb-20 15:11 35.720374 -119.713248 200 31032ft 456kts
29-Feb-20 15:12 35.597619 -119.750358 195 31031ft 459kts
29-Feb-20 15:13 35.472274 -119.780535 195 31033ft 458kts
29-Feb-20 15:14 35.346553 -119.808147 187 31048ft 462kts
29-Feb-20 15:15 35.221874 -119.763215 150 31079ft 489kts
29-Feb-20 15:16 35.113150 -119.661139 147 30203ft 487kts
29-Feb-20 15:17 35.005146 -119.560215 146 26843ft 488kts
29-Feb-20 15:18 34.899942 -119.462704 146 25933ft 471kts
29-Feb-20 15:19 34.796701 -119.370948 146 24148ft 466kts
29-Feb-20 15:20 34.697164 -119.282428 147 22256ft 411kts
29-Feb-20 15:21 34.607523 -119.204690 147 20598ft 388kts
29-Feb-20 15:22 34.521859 -119.130024 146 19004ft 374kts
29-Feb-20 15:23 34.438975 -119.056617 147 17429ft 362kts
29-Feb-20 15:24 34.357650 -118.986247 146 15787ft 353kts
29-Feb-20 15:25 34.279818 -118.916297 144 14235ft 342kts
29-Feb-20 15:26 34.204707 -118.847548 143 12740ft 331kts
29-Feb-20 15:27 34.138603 -118.782543 138 12192ft 296kts
29-Feb-20 15:28 34.078067 -118.716469 138 10883ft 290kts
29-Feb-20 15:29 34.027249 -118.644210 100 9698ft 285kts
29-Feb-20 15:30 34.018784 -118.549326 97 8478ft 282kts
29-Feb-20 15:31 34.011180 -118.456762 87 7701ft 265kts
29-Feb-20 15:32 34.024847 -118.372767 78 7010ft 221kts
29-Feb-20 15:33 34.032903 -118.304331 84 7002ft 207kts
29-Feb-20 15:34 34.039527 -118.236483 85 6049ft 205kts
29-Feb-20 15:35 34.046067 -118.168852 85 5311ft 200kts
29-Feb-20 15:36 34.038584 -118.108432 156 4510ft 189kts
29-Feb-20 15:37 34.004058 -118.142959 242 3532ft 187kts
29-Feb-20 15:38 33.981093 -118.200068 242 3502ft 189kts
29-Feb-20 15:39 33.967044 -118.260325 261 2442ft 190kts
29-Feb-20 15:40 33.960965 -118.317442 260 1514ft 155kts
29-Feb-20 15:41 33.955785 -118.368642 256 761ft 144kts
29-Feb-20 15:42 33.950914 -118.413662 261 115ft 115kts
29-Feb-20 15:43 33.948266 -118.427068 220 114ft 10kts

Navigation Log

Ident Type
Flight plan parsing failed, navigation log unavailable